sensor_id;sensor_type;location;lat;lon;timestamp;temperature;humidity
7427;DHT22;3755;59.316;18.092;2023-04-24T00:02:08;6.80;99.90
7427;DHT22;3755;59.316;18.092;2023-04-24T00:04:36;6.80;99.90
7427;DHT22;3755;59.316;18.092;2023-04-24T00:07:06;6.80;99.90
7427;DHT22;3755;59.316;18.092;2023-04-24T00:09:33;6.70;99.90
7427;DHT22;3755;59.316;18.092;2023-04-24T00:12:01;6.70;99.90
7427;DHT22;3755;59.316;18.092;2023-04-24T00:14:30;6.80;99.90
7427;DHT22;3755;59.316;18.092;2023-04-24T00:16:58;6.70;99.90
7427;DHT22;3755;59.316;18.092;2023-04-24T00:19:26;6.80;99.90
7427;DHT22;3755;59.316;18.092;2023-04-24T00:21:53;6.70;99.90
7427;DHT22;3755;59.316;18.092;2023-04-24T00:24:20;6.70;99.90
7427;DHT22;3755;59.316;18.092;2023-04-24T00:26:48;6.70;99.90
7427;DHT22;3755;59.316;18.092;2023-04-24T00:29:15;6.60;99.90
7427;DHT22;3755;59.316;18.092;2023-04-24T00:31:42;6.60;99.90
7427;DHT22;3755;59.316;18.092;2023-04-24T00:34:10;6.60;99.90
7427;DHT22;3755;59.316;18.092;2023-04-24T00:36:38;6.50;99.90
7427;DHT22;3755;59.316;18.092;2023-04-24T00:39:06;6.50;99.90
7427;DHT22;3755;59.316;18.092;2023-04-24T00:41:34;6.50;99.90
7427;DHT22;3755;59.316;18.092;2023-04-24T00:44:02;6.50;99.90
7427;DHT22;3755;59.316;18.092;2023-04-24T00:46:29;6.50;99.90
7427;DHT22;3755;59.316;18.092;2023-04-24T00:48:57;6.40;99.90
7427;DHT22;3755;59.316;18.092;2023-04-24T00:51:27;6.40;99.90
7427;DHT22;3755;59.316;18.092;2023-04-24T00:53:54;6.50;99.90
7427;DHT22;3755;59.316;18.092;2023-04-24T00:56:21;6.60;99.90
7427;DHT22;3755;59.316;18.092;2023-04-24T00:58:49;6.60;99.90
7427;DHT22;3755;59.316;18.092;2023-04-24T01:01:17;6.60;99.90
7427;DHT22;3755;59.316;18.092;2023-04-24T01:03:47;6.50;99.90
7427;DHT22;3755;59.316;18.092;2023-04-24T01:06:16;6.50;99.90
7427;DHT22;3755;59.316;18.092;2023-04-24T01:08:45;6.50;99.90
7427;DHT22;3755;59.316;18.092;2023-04-24T01:11:13;6.50;99.90
7427;DHT22;3755;59.316;18.092;2023-04-24T01:13:41;6.50;99.90
7427;DHT22;3755;59.316;18.092;2023-04-24T01:16:08;6.50;99.90
7427;DHT22;3755;59.316;18.092;2023-04-24T01:18:35;6.50;99.90
7427;DHT22;3755;59.316;18.092;2023-04-24T01:21:04;6.40;99.90
7427;DHT22;3755;59.316;18.092;2023-04-24T01:23:34;6.40;99.90
7427;DHT22;3755;59.316;18.092;2023-04-24T01:26:01;6.40;99.90
7427;DHT22;3755;59.316;18.092;2023-04-24T01:28:29;6.30;99.90
7427;DHT22;3755;59.316;18.092;2023-04-24T01:30:56;6.40;99.90
7427;DHT22;3755;59.316;18.092;2023-04-24T01:33:24;6.40;99.90
7427;DHT22;3755;59.316;18.092;2023-04-24T01:35:51;6.40;99.90
7427;DHT22;3755;59.316;18.092;2023-04-24T01:38:18;6.40;99.90
7427;DHT22;3755;59.316;18.092;2023-04-24T01:40:47;6.40;99.90
7427;DHT22;3755;59.316;18.092;2023-04-24T01:43:14;6.40;99.90
7427;DHT22;3755;59.316;18.092;2023-04-24T01:45:41;6.40;99.90
7427;DHT22;3755;59.316;18.092;2023-04-24T01:48:09;6.30;99.90
7427;DHT22;3755;59.316;18.092;2023-04-24T01:50:36;6.40;99.90
7427;DHT22;3755;59.316;18.092;2023-04-24T01:53:03;6.30;99.90
7427;DHT22;3755;59.316;18.092;2023-04-24T01:55:31;6.30;99.90
7427;DHT22;3755;59.316;18.092;2023-04-24T01:57:59;6.30;99.90
7427;DHT22;3755;59.316;18.092;2023-04-24T02:00:27;6.00;99.90
7427;DHT22;3755;59.316;18.092;2023-04-24T02:02:55;6.20;99.90
7427;DHT22;3755;59.316;18.092;2023-04-24T02:05:22;6.20;99.90
7427;DHT22;3755;59.316;18.092;2023-04-24T02:07:49;6.10;99.90
7427;DHT22;3755;59.316;18.092;2023-04-24T02:10:16;6.10;99.90
7427;DHT22;3755;59.316;18.092;2023-04-24T02:12:44;6.20;99.90
7427;DHT22;3755;59.316;18.092;2023-04-24T02:15:12;6.20;99.90
7427;DHT22;3755;59.316;18.092;2023-04-24T02:17:39;6.20;99.90
7427;DHT22;3755;59.316;18.092;2023-04-24T02:20:07;6.20;99.90
7427;DHT22;3755;59.316;18.092;2023-04-24T02:22:35;6.30;99.90
7427;DHT22;3755;59.316;18.092;2023-04-24T02:25:02;6.20;99.90
7427;DHT22;3755;59.316;18.092;2023-04-24T02:27:29;6.10;99.90
7427;DHT22;3755;59.316;18.092;2023-04-24T02:29:56;6.10;99.90
7427;DHT22;3755;59.316;18.092;2023-04-24T02:32:25;6.10;99.90
7427;DHT22;3755;59.316;18.092;2023-04-24T02:34:52;6.00;99.90
7427;DHT22;3755;59.316;18.092;2023-04-24T02:37:19;6.00;99.90
7427;DHT22;3755;59.316;18.092;2023-04-24T02:39:46;5.90;99.90
7427;DHT22;3755;59.316;18.092;2023-04-24T02:42:14;6.00;99.90
7427;DHT22;3755;59.316;18.092;2023-04-24T02:44:41;6.00;99.90
7427;DHT22;3755;59.316;18.092;2023-04-24T02:47:08;6.00;99.90
7427;DHT22;3755;59.316;18.092;2023-04-24T02:49:37;6.00;99.90
7427;DHT22;3755;59.316;18.092;2023-04-24T02:52:04;5.70;99.90
7427;DHT22;3755;59.316;18.092;2023-04-24T02:54:31;5.70;99.90
7427;DHT22;3755;59.316;18.092;2023-04-24T02:56:59;5.60;99.90
7427;DHT22;3755;59.316;18.092;2023-04-24T02:59:26;5.60;99.90
7427;DHT22;3755;59.316;18.092;2023-04-24T03:01:54;5.60;99.90
7427;DHT22;3755;59.316;18.092;2023-04-24T03:04:21;5.40;99.90
7427;DHT22;3755;59.316;18.092;2023-04-24T03:06:50;5.40;99.90
7427;DHT22;3755;59.316;18.092;2023-04-24T03:09:18;5.40;99.90
7427;DHT22;3755;59.316;18.092;2023-04-24T03:11:45;5.50;99.90
7427;DHT22;3755;59.316;18.092;2023-04-24T03:14:12;5.50;99.90
7427;DHT22;3755;59.316;18.092;2023-04-24T03:16:40;5.60;99.90
7427;DHT22;3755;59.316;18.092;2023-04-24T03:19:07;5.60;99.90
7427;DHT22;3755;59.316;18.092;2023-04-24T03:21:35;5.60;99.90
7427;DHT22;3755;59.316;18.092;2023-04-24T03:24:07;5.60;99.90
7427;DHT22;3755;59.316;18.092;2023-04-24T03:26:35;5.70;99.90
7427;DHT22;3755;59.316;18.092;2023-04-24T03:29:02;5.60;99.90
7427;DHT22;3755;59.316;18.092;2023-04-24T03:31:29;5.60;99.90
7427;DHT22;3755;59.316;18.092;2023-04-24T03:33:57;5.50;99.90
7427;DHT22;3755;59.316;18.092;2023-04-24T03:36:24;5.50;99.90
7427;DHT22;3755;59.316;18.092;2023-04-24T03:38:51;5.50;99.90
7427;DHT22;3755;59.316;18.092;2023-04-24T03:41:20;5.60;99.90
7427;DHT22;3755;59.316;18.092;2023-04-24T03:43:48;5.50;99.90
7427;DHT22;3755;59.316;18.092;2023-04-24T03:46:15;5.40;99.90
7427;DHT22;3755;59.316;18.092;2023-04-24T03:48:42;5.40;99.90
7427;DHT22;3755;59.316;18.092;2023-04-24T03:51:10;5.40;99.90
7427;DHT22;3755;59.316;18.092;2023-04-24T03:53:37;5.30;99.90
7427;DHT22;3755;59.316;18.092;2023-04-24T03:56:04;5.40;99.90
7427;DHT22;3755;59.316;18.092;2023-04-24T03:58:33;5.40;99.90
7427;DHT22;3755;59.316;18.092;2023-04-24T04:01:00;5.50;99.90
7427;DHT22;3755;59.316;18.092;2023-04-24T04:03:28;5.50;99.90
7427;DHT22;3755;59.316;18.092;2023-04-24T04:05:55;5.40;99.90
7427;DHT22;3755;59.316;18.092;2023-04-24T04:08:22;5.40;99.90
7427;DHT22;3755;59.316;18.092;2023-04-24T04:10:50;5.40;99.90
7427;DHT22;3755;59.316;18.092;2023-04-24T04:13:17;5.40;99.90
7427;DHT22;3755;59.316;18.092;2023-04-24T04:15:46;5.40;99.90
7427;DHT22;3755;59.316;18.092;2023-04-24T04:18:13;5.30;99.90
7427;DHT22;3755;59.316;18.092;2023-04-24T04:20:40;5.30;99.90
7427;DHT22;3755;59.316;18.092;2023-04-24T04:23:08;5.20;99.90
7427;DHT22;3755;59.316;18.092;2023-04-24T04:25:35;5.30;99.90
7427;DHT22;3755;59.316;18.092;2023-04-24T04:28:03;5.30;99.90
7427;DHT22;3755;59.316;18.092;2023-04-24T04:30:30;5.40;99.90
7427;DHT22;3755;59.316;18.092;2023-04-24T04:32:59;5.30;99.90
7427;DHT22;3755;59.316;18.092;2023-04-24T04:35:28;5.20;99.90
7427;DHT22;3755;59.316;18.092;2023-04-24T04:37:55;5.30;99.90
7427;DHT22;3755;59.316;18.092;2023-04-24T04:40:24;5.30;99.90
7427;DHT22;3755;59.316;18.092;2023-04-24T04:42:53;5.20;99.90
7427;DHT22;3755;59.316;18.092;2023-04-24T04:45:21;5.30;99.90
7427;DHT22;3755;59.316;18.092;2023-04-24T04:47:50;5.40;99.90
7427;DHT22;3755;59.316;18.092;2023-04-24T04:50:18;5.40;99.90
7427;DHT22;3755;59.316;18.092;2023-04-24T04:52:46;5.40;99.90
7427;DHT22;3755;59.316;18.092;2023-04-24T04:55:14;5.40;99.90
7427;DHT22;3755;59.316;18.092;2023-04-24T04:57:41;5.40;99.90
7427;DHT22;3755;59.316;18.092;2023-04-24T05:00:10;5.30;99.90
7427;DHT22;3755;59.316;18.092;2023-04-24T05:02:37;5.30;99.90
7427;DHT22;3755;59.316;18.092;2023-04-24T05:05:05;5.40;99.90
7427;DHT22;3755;59.316;18.092;2023-04-24T05:07:34;5.40;99.90
7427;DHT22;3755;59.316;18.092;2023-04-24T05:10:02;5.40;99.90
7427;DHT22;3755;59.316;18.092;2023-04-24T05:12:29;5.40;99.90
7427;DHT22;3755;59.316;18.092;2023-04-24T05:14:57;5.30;99.90
7427;DHT22;3755;59.316;18.092;2023-04-24T05:17:24;5.30;99.90
7427;DHT22;3755;59.316;18.092;2023-04-24T05:19:51;5.30;99.90
7427;DHT22;3755;59.316;18.092;2023-04-24T05:22:19;5.20;99.90
7427;DHT22;3755;59.316;18.092;2023-04-24T05:24:48;5.20;99.90
7427;DHT22;3755;59.316;18.092;2023-04-24T05:27:15;5.20;99.90
7427;DHT22;3755;59.316;18.092;2023-04-24T05:29:43;5.20;99.90
7427;DHT22;3755;59.316;18.092;2023-04-24T05:32:10;5.30;99.90
7427;DHT22;3755;59.316;18.092;2023-04-24T05:34:37;5.30;99.90
7427;DHT22;3755;59.316;18.092;2023-04-24T05:37:05;5.30;99.90
7427;DHT22;3755;59.316;18.092;2023-04-24T05:39:35;5.40;99.90
7427;DHT22;3755;59.316;18.092;2023-04-24T05:42:05;5.40;99.90
7427;DHT22;3755;59.316;18.092;2023-04-24T05:44:33;5.40;99.90
7427;DHT22;3755;59.316;18.092;2023-04-24T05:47:01;5.40;99.90
7427;DHT22;3755;59.316;18.092;2023-04-24T05:49:28;5.40;99.90
7427;DHT22;3755;59.316;18.092;2023-04-24T05:51:56;5.40;99.90
7427;DHT22;3755;59.316;18.092;2023-04-24T05:54:23;5.30;99.90
7427;DHT22;3755;59.316;18.092;2023-04-24T05:56:51;5.30;99.90
7427;DHT22;3755;59.316;18.092;2023-04-24T05:59:21;5.30;99.90
7427;DHT22;3755;59.316;18.092;2023-04-24T06:01:49;5.20;99.90
7427;DHT22;3755;59.316;18.092;2023-04-24T06:04:16;5.00;99.90
7427;DHT22;3755;59.316;18.092;2023-04-24T06:06:44;5.00;99.90
7427;DHT22;3755;59.316;18.092;2023-04-24T06:09:16;5.00;99.90
7427;DHT22;3755;59.316;18.092;2023-04-24T06:11:43;5.00;99.90
7427;DHT22;3755;59.316;18.092;2023-04-24T06:14:11;5.00;99.90
7427;DHT22;3755;59.316;18.092;2023-04-24T06:16:41;5.00;99.90
7427;DHT22;3755;59.316;18.092;2023-04-24T06:19:09;5.10;99.90
7427;DHT22;3755;59.316;18.092;2023-04-24T06:21:36;5.00;99.90
7427;DHT22;3755;59.316;18.092;2023-04-24T06:24:04;5.00;99.90
7427;DHT22;3755;59.316;18.092;2023-04-24T06:26:32;5.00;99.90
7427;DHT22;3755;59.316;18.092;2023-04-24T06:28:59;5.00;99.90
7427;DHT22;3755;59.316;18.092;2023-04-24T06:31:26;5.00;99.90
7427;DHT22;3755;59.316;18.092;2023-04-24T06:33:55;5.00;99.90
7427;DHT22;3755;59.316;18.092;2023-04-24T06:36:22;5.10;99.90
7427;DHT22;3755;59.316;18.092;2023-04-24T06:38:50;5.10;99.90
7427;DHT22;3755;59.316;18.092;2023-04-24T06:41:17;5.10;99.90
7427;DHT22;3755;59.316;18.092;2023-04-24T06:43:45;5.10;99.90
7427;DHT22;3755;59.316;18.092;2023-04-24T06:46:12;5.10;99.90
7427;DHT22;3755;59.316;18.092;2023-04-24T06:48:39;5.10;99.90
7427;DHT22;3755;59.316;18.092;2023-04-24T06:51:08;5.10;99.90
7427;DHT22;3755;59.316;18.092;2023-04-24T06:53:36;5.00;99.90
7427;DHT22;3755;59.316;18.092;2023-04-24T06:56:03;5.00;99.90
7427;DHT22;3755;59.316;18.092;2023-04-24T06:58:31;5.10;99.90
7427;DHT22;3755;59.316;18.092;2023-04-24T07:00:58;5.20;99.90
7427;DHT22;3755;59.316;18.092;2023-04-24T07:03:26;5.10;99.90
7427;DHT22;3755;59.316;18.092;2023-04-24T07:05:54;5.10;99.90
7427;DHT22;3755;59.316;18.092;2023-04-24T07:08:25;5.00;99.90
7427;DHT22;3755;59.316;18.092;2023-04-24T07:10:52;5.00;99.90
7427;DHT22;3755;59.316;18.092;2023-04-24T07:13:20;5.10;99.90
7427;DHT22;3755;59.316;18.092;2023-04-24T07:15:47;5.20;99.90
7427;DHT22;3755;59.316;18.092;2023-04-24T07:18:16;5.30;99.90
7427;DHT22;3755;59.316;18.092;2023-04-24T07:20:44;5.30;99.90
7427;DHT22;3755;59.316;18.092;2023-04-24T07:23:11;5.30;99.90
7427;DHT22;3755;59.316;18.092;2023-04-24T07:25:40;5.30;99.90
7427;DHT22;3755;59.316;18.092;2023-04-24T07:28:07;5.30;99.90
7427;DHT22;3755;59.316;18.092;2023-04-24T07:30:35;5.20;99.90
7427;DHT22;3755;59.316;18.092;2023-04-24T07:33:02;5.20;99.90
7427;DHT22;3755;59.316;18.092;2023-04-24T07:35:30;5.20;99.90
7427;DHT22;3755;59.316;18.092;2023-04-24T07:37:57;5.30;99.90
7427;DHT22;3755;59.316;18.092;2023-04-24T07:40:25;5.40;99.90
7427;DHT22;3755;59.316;18.092;2023-04-24T07:42:53;5.40;99.90
7427;DHT22;3755;59.316;18.092;2023-04-24T07:45:21;5.20;99.90
7427;DHT22;3755;59.316;18.092;2023-04-24T07:47:49;5.20;99.90
7427;DHT22;3755;59.316;18.092;2023-04-24T07:50:17;5.30;99.90
7427;DHT22;3755;59.316;18.092;2023-04-24T07:52:44;5.30;99.90
7427;DHT22;3755;59.316;18.092;2023-04-24T07:55:11;5.40;99.90
7427;DHT22;3755;59.316;18.092;2023-04-24T07:57:39;5.40;99.90
7427;DHT22;3755;59.316;18.092;2023-04-24T08:00:09;5.40;99.90
7427;DHT22;3755;59.316;18.092;2023-04-24T08:02:36;5.40;99.90
7427;DHT22;3755;59.316;18.092;2023-04-24T08:05:04;5.50;99.90
7427;DHT22;3755;59.316;18.092;2023-04-24T08:07:31;5.60;99.90
7427;DHT22;3755;59.316;18.092;2023-04-24T08:09:58;5.70;99.90
7427;DHT22;3755;59.316;18.092;2023-04-24T08:12:27;5.70;99.90
7427;DHT22;3755;59.316;18.092;2023-04-24T08:14:54;5.60;99.90
7427;DHT22;3755;59.316;18.092;2023-04-24T08:17:24;5.60;99.90
7427;DHT22;3755;59.316;18.092;2023-04-24T08:19:51;5.70;99.90
7427;DHT22;3755;59.316;18.092;2023-04-24T08:22:24;5.60;99.90
7427;DHT22;3755;59.316;18.092;2023-04-24T08:24:52;5.60;99.90
7427;DHT22;3755;59.316;18.092;2023-04-24T08:27:19;5.50;99.90
7427;DHT22;3755;59.316;18.092;2023-04-24T08:29:47;5.60;99.90
7427;DHT22;3755;59.316;18.092;2023-04-24T08:32:14;5.40;99.90
7427;DHT22;3755;59.316;18.092;2023-04-24T08:34:43;5.50;99.90
7427;DHT22;3755;59.316;18.092;2023-04-24T08:37:10;5.60;99.90
7427;DHT22;3755;59.316;18.092;2023-04-24T08:39:38;5.70;99.90
7427;DHT22;3755;59.316;18.092;2023-04-24T08:42:06;5.80;99.90
7427;DHT22;3755;59.316;18.092;2023-04-24T08:44:34;5.90;99.90
7427;DHT22;3755;59.316;18.092;2023-04-24T08:47:03;5.90;99.90
7427;DHT22;3755;59.316;18.092;2023-04-24T08:49:30;6.00;99.90
7427;DHT22;3755;59.316;18.092;2023-04-24T08:52:00;6.10;99.90
7427;DHT22;3755;59.316;18.092;2023-04-24T08:54:28;6.10;99.90
7427;DHT22;3755;59.316;18.092;2023-04-24T08:56:59;6.10;99.90
7427;DHT22;3755;59.316;18.092;2023-04-24T08:59:27;6.10;99.90
7427;DHT22;3755;59.316;18.092;2023-04-24T09:01:56;6.10;99.90
7427;DHT22;3755;59.316;18.092;2023-04-24T09:04:24;6.10;99.90
7427;DHT22;3755;59.316;18.092;2023-04-24T09:06:52;6.10;99.90
7427;DHT22;3755;59.316;18.092;2023-04-24T09:09:24;6.00;99.90
7427;DHT22;3755;59.316;18.092;2023-04-24T09:11:52;5.90;99.90
7427;DHT22;3755;59.316;18.092;2023-04-24T09:14:21;5.90;99.90
7427;DHT22;3755;59.316;18.092;2023-04-24T09:16:49;5.90;99.90
7427;DHT22;3755;59.316;18.092;2023-04-24T09:19:17;5.90;99.90
7427;DHT22;3755;59.316;18.092;2023-04-24T09:21:46;5.90;99.90
7427;DHT22;3755;59.316;18.092;2023-04-24T09:24:16;5.80;99.90
7427;DHT22;3755;59.316;18.092;2023-04-24T09:26:45;5.70;99.90
7427;DHT22;3755;59.316;18.092;2023-04-24T09:29:15;5.70;99.90
7427;DHT22;3755;59.316;18.092;2023-04-24T09:31:43;5.50;99.90
7427;DHT22;3755;59.316;18.092;2023-04-24T09:34:11;5.50;99.90
7427;DHT22;3755;59.316;18.092;2023-04-24T09:36:40;5.60;99.90
7427;DHT22;3755;59.316;18.092;2023-04-24T09:39:10;5.60;99.90
7427;DHT22;3755;59.316;18.092;2023-04-24T09:41:46;5.70;99.90
7427;DHT22;3755;59.316;18.092;2023-04-24T09:44:15;5.70;99.90
7427;DHT22;3755;59.316;18.092;2023-04-24T09:46:43;5.80;99.90
7427;DHT22;3755;59.316;18.092;2023-04-24T09:49:15;5.80;99.90
7427;DHT22;3755;59.316;18.092;2023-04-24T09:51:42;5.80;99.90
7427;DHT22;3755;59.316;18.092;2023-04-24T09:54:17;5.90;99.90
7427;DHT22;3755;59.316;18.092;2023-04-24T09:56:49;6.00;99.90
7427;DHT22;3755;59.316;18.092;2023-04-24T09:59:18;5.90;99.90
7427;DHT22;3755;59.316;18.092;2023-04-24T10:01:46;6.00;99.90
7427;DHT22;3755;59.316;18.092;2023-04-24T10:04:19;6.10;99.90
7427;DHT22;3755;59.316;18.092;2023-04-24T10:06:49;6.10;99.90
7427;DHT22;3755;59.316;18.092;2023-04-24T10:09:17;6.10;99.90
7427;DHT22;3755;59.316;18.092;2023-04-24T10:11:47;6.10;99.90
7427;DHT22;3755;59.316;18.092;2023-04-24T10:14:16;6.30;99.90
7427;DHT22;3755;59.316;18.092;2023-04-24T10:16:44;6.50;99.90
7427;DHT22;3755;59.316;18.092;2023-04-24T10:19:13;6.50;99.90
7427;DHT22;3755;59.316;18.092;2023-04-24T10:21:41;6.60;99.90
7427;DHT22;3755;59.316;18.092;2023-04-24T10:24:12;6.60;99.90
7427;DHT22;3755;59.316;18.092;2023-04-24T10:26:40;6.50;99.90
7427;DHT22;3755;59.316;18.092;2023-04-24T10:29:10;6.40;99.90
7427;DHT22;3755;59.316;18.092;2023-04-24T10:31:39;6.40;99.90
7427;DHT22;3755;59.316;18.092;2023-04-24T10:34:08;6.30;99.90
7427;DHT22;3755;59.316;18.092;2023-04-24T10:36:42;6.20;99.90
7427;DHT22;3755;59.316;18.092;2023-04-24T10:39:12;6.10;99.90
7427;DHT22;3755;59.316;18.092;2023-04-24T10:41:41;6.20;99.90
7427;DHT22;3755;59.316;18.092;2023-04-24T10:44:12;6.20;99.90
7427;DHT22;3755;59.316;18.092;2023-04-24T10:46:44;6.20;99.90
7427;DHT22;3755;59.316;18.092;2023-04-24T10:49:12;6.20;99.90
7427;DHT22;3755;59.316;18.092;2023-04-24T10:51:47;6.20;99.90
7427;DHT22;3755;59.316;18.092;2023-04-24T10:54:25;6.30;99.90
7427;DHT22;3755;59.316;18.092;2023-04-24T10:56:53;6.30;99.90
7427;DHT22;3755;59.316;18.092;2023-04-24T10:59:35;6.30;99.90
7427;DHT22;3755;59.316;18.092;2023-04-24T11:02:04;6.40;99.90
7427;DHT22;3755;59.316;18.092;2023-04-24T11:04:34;6.50;99.90
7427;DHT22;3755;59.316;18.092;2023-04-24T11:07:03;6.50;99.90
7427;DHT22;3755;59.316;18.092;2023-04-24T11:09:31;6.50;99.90
7427;DHT22;3755;59.316;18.092;2023-04-24T11:12:05;6.50;99.90
7427;DHT22;3755;59.316;18.092;2023-04-24T11:15:04;6.50;99.90
7427;DHT22;3755;59.316;18.092;2023-04-24T11:17:38;6.60;99.90
7427;DHT22;3755;59.316;18.092;2023-04-24T11:20:08;6.70;99.90
7427;DHT22;3755;59.316;18.092;2023-04-24T11:22:37;6.70;99.90
7427;DHT22;3755;59.316;18.092;2023-04-24T11:25:06;6.70;99.90
7427;DHT22;3755;59.316;18.092;2023-04-24T11:27:39;6.60;99.90
7427;DHT22;3755;59.316;18.092;2023-04-24T11:30:10;6.50;99.90
7427;DHT22;3755;59.316;18.092;2023-04-24T11:32:38;6.40;99.90
7427;DHT22;3755;59.316;18.092;2023-04-24T11:35:08;6.40;99.90
7427;DHT22;3755;59.316;18.092;2023-04-24T11:37:37;6.40;99.90
7427;DHT22;3755;59.316;18.092;2023-04-24T11:40:06;6.20;99.90
7427;DHT22;3755;59.316;18.092;2023-04-24T11:42:34;6.20;99.90
7427;DHT22;3755;59.316;18.092;2023-04-24T11:45:06;6.10;99.90
7427;DHT22;3755;59.316;18.092;2023-04-24T11:47:35;6.20;99.90
7427;DHT22;3755;59.316;18.092;2023-04-24T11:50:04;6.20;99.90
7427;DHT22;3755;59.316;18.092;2023-04-24T11:52:36;6.10;99.90
7427;DHT22;3755;59.316;18.092;2023-04-24T11:55:06;6.10;99.90
7427;DHT22;3755;59.316;18.092;2023-04-24T11:57:34;6.20;99.90
7427;DHT22;3755;59.316;18.092;2023-04-24T12:00:03;6.20;99.90
7427;DHT22;3755;59.316;18.092;2023-04-24T12:02:32;6.30;99.90
7427;DHT22;3755;59.316;18.092;2023-04-24T12:05:00;6.20;99.90
7427;DHT22;3755;59.316;18.092;2023-04-24T12:07:29;6.30;99.90
7427;DHT22;3755;59.316;18.092;2023-04-24T12:09:57;6.20;99.90
7427;DHT22;3755;59.316;18.092;2023-04-24T12:12:26;6.20;99.90
7427;DHT22;3755;59.316;18.092;2023-04-24T12:14:54;6.30;99.90
7427;DHT22;3755;59.316;18.092;2023-04-24T12:17:26;6.30;99.90
7427;DHT22;3755;59.316;18.092;2023-04-24T12:19:57;6.30;99.90
7427;DHT22;3755;59.316;18.092;2023-04-24T12:22:28;6.30;99.90
7427;DHT22;3755;59.316;18.092;2023-04-24T12:25:00;6.30;99.90
7427;DHT22;3755;59.316;18.092;2023-04-24T12:27:30;6.20;99.90
7427;DHT22;3755;59.316;18.092;2023-04-24T12:29:59;6.00;99.90
7427;DHT22;3755;59.316;18.092;2023-04-24T12:32:27;6.00;99.90
7427;DHT22;3755;59.316;18.092;2023-04-24T12:34:56;5.90;99.90
7427;DHT22;3755;59.316;18.092;2023-04-24T12:37:31;5.90;99.90
7427;DHT22;3755;59.316;18.092;2023-04-24T12:40:13;6.00;99.90
7427;DHT22;3755;59.316;18.092;2023-04-24T12:42:43;6.00;99.90
7427;DHT22;3755;59.316;18.092;2023-04-24T12:45:11;6.00;99.90
7427;DHT22;3755;59.316;18.092;2023-04-24T12:47:41;6.00;99.90
7427;DHT22;3755;59.316;18.092;2023-04-24T12:50:09;6.20;99.90
7427;DHT22;3755;59.316;18.092;2023-04-24T12:52:40;6.20;99.90
7427;DHT22;3755;59.316;18.092;2023-04-24T12:55:08;6.20;99.90
7427;DHT22;3755;59.316;18.092;2023-04-24T12:57:37;6.30;99.90
7427;DHT22;3755;59.316;18.092;2023-04-24T13:00:05;6.20;99.90
7427;DHT22;3755;59.316;18.092;2023-04-24T13:02:33;6.10;99.90
7427;DHT22;3755;59.316;18.092;2023-04-24T13:05:01;6.10;99.90
7427;DHT22;3755;59.316;18.092;2023-04-24T13:07:29;6.00;99.90
7427;DHT22;3755;59.316;18.092;2023-04-24T13:09:58;6.00;99.90
7427;DHT22;3755;59.316;18.092;2023-04-24T13:12:26;6.00;99.90
7427;DHT22;3755;59.316;18.092;2023-04-24T13:14:53;5.90;99.90
7427;DHT22;3755;59.316;18.092;2023-04-24T13:17:22;5.90;99.90
7427;DHT22;3755;59.316;18.092;2023-04-24T13:19:50;5.90;99.90
7427;DHT22;3755;59.316;18.092;2023-04-24T13:22:18;5.90;99.90
7427;DHT22;3755;59.316;18.092;2023-04-24T13:24:45;5.90;99.90
7427;DHT22;3755;59.316;18.092;2023-04-24T13:27:16;5.80;99.90
7427;DHT22;3755;59.316;18.092;2023-04-24T13:29:43;5.90;99.90
7427;DHT22;3755;59.316;18.092;2023-04-24T13:32:13;5.90;99.90
7427;DHT22;3755;59.316;18.092;2023-04-24T13:34:40;5.90;99.90
7427;DHT22;3755;59.316;18.092;2023-04-24T13:37:08;5.90;99.90
7427;DHT22;3755;59.316;18.092;2023-04-24T13:39:35;5.90;99.90
7427;DHT22;3755;59.316;18.092;2023-04-24T13:42:03;5.80;99.90
7427;DHT22;3755;59.316;18.092;2023-04-24T13:44:32;5.90;99.90
7427;DHT22;3755;59.316;18.092;2023-04-24T13:46:59;5.80;99.90
7427;DHT22;3755;59.316;18.092;2023-04-24T13:49:27;5.70;99.90
7427;DHT22;3755;59.316;18.092;2023-04-24T13:51:56;5.70;99.90
7427;DHT22;3755;59.316;18.092;2023-04-24T13:54:23;5.70;99.90
7427;DHT22;3755;59.316;18.092;2023-04-24T13:56:52;5.60;99.90
7427;DHT22;3755;59.316;18.092;2023-04-24T13:59:20;5.60;99.90
7427;DHT22;3755;59.316;18.092;2023-04-24T14:01:49;5.40;99.90
7427;DHT22;3755;59.316;18.092;2023-04-24T14:04:16;5.40;99.90
7427;DHT22;3755;59.316;18.092;2023-04-24T14:06:44;5.40;99.90
7427;DHT22;3755;59.316;18.092;2023-04-24T14:09:12;5.40;99.90
7427;DHT22;3755;59.316;18.092;2023-04-24T14:11:40;5.40;99.90
7427;DHT22;3755;59.316;18.092;2023-04-24T14:14:07;5.40;99.90
7427;DHT22;3755;59.316;18.092;2023-04-24T14:16:35;5.30;99.90
7427;DHT22;3755;59.316;18.092;2023-04-24T14:19:04;5.30;99.90
7427;DHT22;3755;59.316;18.092;2023-04-24T14:21:32;5.30;99.90
7427;DHT22;3755;59.316;18.092;2023-04-24T14:23:59;5.20;99.90
7427;DHT22;3755;59.316;18.092;2023-04-24T14:26:27;5.30;99.90
7427;DHT22;3755;59.316;18.092;2023-04-24T14:28:54;5.20;99.90
7427;DHT22;3755;59.316;18.092;2023-04-24T14:31:22;5.20;99.90
7427;DHT22;3755;59.316;18.092;2023-04-24T14:33:50;5.20;99.90
7427;DHT22;3755;59.316;18.092;2023-04-24T14:36:19;5.20;99.90
7427;DHT22;3755;59.316;18.092;2023-04-24T14:38:46;5.20;99.90
7427;DHT22;3755;59.316;18.092;2023-04-24T14:41:13;5.20;99.90
7427;DHT22;3755;59.316;18.092;2023-04-24T14:43:41;5.10;99.90
7427;DHT22;3755;59.316;18.092;2023-04-24T14:46:09;5.20;99.90
7427;DHT22;3755;59.316;18.092;2023-04-24T14:48:36;5.20;99.90
7427;DHT22;3755;59.316;18.092;2023-04-24T14:51:05;5.10;99.90
7427;DHT22;3755;59.316;18.092;2023-04-24T14:53:34;5.10;99.90
7427;DHT22;3755;59.316;18.092;2023-04-24T14:56:01;5.00;99.90
7427;DHT22;3755;59.316;18.092;2023-04-24T14:58:28;4.90;99.90
7427;DHT22;3755;59.316;18.092;2023-04-24T15:00:56;4.90;99.90
7427;DHT22;3755;59.316;18.092;2023-04-24T15:03:23;4.90;99.90
7427;DHT22;3755;59.316;18.092;2023-04-24T15:05:52;5.00;99.90
7427;DHT22;3755;59.316;18.092;2023-04-24T15:08:19;5.00;99.90
7427;DHT22;3755;59.316;18.092;2023-04-24T15:10:48;5.20;99.90
7427;DHT22;3755;59.316;18.092;2023-04-24T15:13:16;5.10;99.90
7427;DHT22;3755;59.316;18.092;2023-04-24T15:15:43;5.00;99.90
7427;DHT22;3755;59.316;18.092;2023-04-24T15:18:11;4.80;99.90
7427;DHT22;3755;59.316;18.092;2023-04-24T15:20:38;4.80;99.90
7427;DHT22;3755;59.316;18.092;2023-04-24T15:23:07;4.60;99.90
7427;DHT22;3755;59.316;18.092;2023-04-24T15:25:35;4.50;99.90
7427;DHT22;3755;59.316;18.092;2023-04-24T15:28:04;4.80;99.90
7427;DHT22;3755;59.316;18.092;2023-04-24T15:30:32;4.80;99.90
7427;DHT22;3755;59.316;18.092;2023-04-24T15:33:00;4.80;99.90
7427;DHT22;3755;59.316;18.092;2023-04-24T15:35:27;4.70;99.90
7427;DHT22;3755;59.316;18.092;2023-04-24T15:37:55;4.80;99.90
7427;DHT22;3755;59.316;18.092;2023-04-24T15:40:22;4.60;99.90
7427;DHT22;3755;59.316;18.092;2023-04-24T15:42:50;4.60;99.90
7427;DHT22;3755;59.316;18.092;2023-04-24T15:45:19;4.60;99.90
7427;DHT22;3755;59.316;18.092;2023-04-24T15:47:46;4.60;99.90
7427;DHT22;3755;59.316;18.092;2023-04-24T15:50:14;4.60;99.90
7427;DHT22;3755;59.316;18.092;2023-04-24T15:52:42;4.60;99.90
7427;DHT22;3755;59.316;18.092;2023-04-24T15:55:10;4.70;99.90
7427;DHT22;3755;59.316;18.092;2023-04-24T15:57:37;4.70;99.90
7427;DHT22;3755;59.316;18.092;2023-04-24T16:00:06;4.50;99.90
7427;DHT22;3755;59.316;18.092;2023-04-24T16:02:35;4.80;99.90
7427;DHT22;3755;59.316;18.092;2023-04-24T16:05:03;4.70;99.90
7427;DHT22;3755;59.316;18.092;2023-04-24T16:07:33;4.70;99.90
7427;DHT22;3755;59.316;18.092;2023-04-24T16:10:00;4.80;99.90